createdAt,value
2022-09-28T00:01:25.608Z,13.60
2022-09-28T00:03:54.912Z,13.60
2022-09-28T00:06:24.464Z,13.50
2022-09-28T00:08:51.529Z,13.50
2022-09-28T00:11:20.825Z,13.50
2022-09-28T00:13:52.726Z,13.60
2022-09-28T00:16:22.056Z,13.60
2022-09-28T00:18:51.070Z,13.60
2022-09-28T00:21:22.149Z,13.70
2022-09-28T00:24:11.267Z,13.70
2022-09-28T00:26:41.084Z,13.60
2022-09-28T00:29:13.402Z,13.60
2022-09-28T00:31:40.164Z,13.60
2022-09-28T00:34:07.120Z,13.60
2022-09-28T00:36:34.171Z,13.60
2022-09-28T00:39:08.542Z,13.60
2022-09-28T00:41:36.002Z,13.60
2022-09-28T00:44:24.541Z,13.60
2022-09-28T00:46:53.304Z,13.60
2022-09-28T00:49:26.549Z,13.60
2022-09-28T00:51:53.357Z,13.60
2022-09-28T00:54:21.905Z,13.60
2022-09-28T00:56:49.333Z,13.70
2022-09-28T00:59:16.527Z,13.60
2022-09-28T01:01:43.924Z,13.60
2022-09-28T01:04:10.906Z,13.60
2022-09-28T01:06:38.946Z,13.60
2022-09-28T01:09:09.984Z,13.50
2022-09-28T01:11:38.935Z,13.50
2022-09-28T01:14:09.901Z,13.50
2022-09-28T01:16:58.491Z,13.50
2022-09-28T01:19:55.250Z,13.50
2022-09-28T01:22:41.373Z,13.50
2022-09-28T01:25:34.231Z,13.50
2022-09-28T01:28:13.869Z,13.60
2022-09-28T01:31:08.021Z,13.60
2022-09-28T01:33:44.023Z,13.60
2022-09-28T01:36:18.618Z,13.50
2022-09-28T01:38:54.941Z,13.50
2022-09-28T01:41:24.975Z,13.50
2022-09-28T01:43:57.553Z,13.50
2022-09-28T01:46:30.347Z,13.50
2022-09-28T01:48:58.971Z,13.50
2022-09-28T01:51:39.852Z,13.50
2022-09-28T01:54:24.708Z,13.50
2022-09-28T01:57:05.721Z,13.60
2022-09-28T01:59:34.575Z,13.60
2022-09-28T02:02:11.177Z,13.60
2022-09-28T02:04:47.264Z,13.60
2022-09-28T02:07:32.214Z,13.60
2022-09-28T02:10:05.405Z,13.60
2022-09-28T02:12:45.123Z,13.70
2022-09-28T02:15:27.961Z,13.60
2022-09-28T02:17:55.000Z,13.60
2022-09-28T02:20:23.891Z,13.60
2022-09-28T02:22:55.868Z,13.50
2022-09-28T02:25:35.924Z,13.50
2022-09-28T02:28:05.905Z,13.50
2022-09-28T02:30:35.621Z,13.60
2022-09-28T02:33:12.496Z,13.50
2022-09-28T02:35:41.404Z,13.50
2022-09-28T02:38:08.481Z,13.50
2022-09-28T02:40:37.897Z,13.50
2022-09-28T02:43:22.001Z,13.60
2022-09-28T02:46:13.739Z,13.60
2022-09-28T02:49:17.246Z,13.60
2022-09-28T02:52:06.994Z,13.60
2022-09-28T02:55:15.145Z,13.50
2022-09-28T02:57:54.106Z,13.50
2022-09-28T03:00:23.504Z,13.50
2022-09-28T03:03:11.536Z,13.50
2022-09-28T03:06:02.299Z,13.50
2022-09-28T03:08:48.620Z,13.50
2022-09-28T03:11:25.208Z,13.50
2022-09-28T03:13:52.797Z,13.50
2022-09-28T03:16:20.733Z,13.50
2022-09-28T03:18:47.904Z,13.50
2022-09-28T03:21:15.533Z,13.50
2022-09-28T03:23:43.019Z,13.50
2022-09-28T03:26:14.170Z,13.50
2022-09-28T03:28:41.006Z,13.50
2022-09-28T03:31:07.921Z,13.50
2022-09-28T03:33:35.152Z,13.50
2022-09-28T03:36:02.127Z,13.50
2022-09-28T03:38:28.892Z,13.50
2022-09-28T03:41:00.315Z,13.50
2022-09-28T03:43:28.249Z,13.50
2022-09-28T03:46:00.157Z,13.50
2022-09-28T03:48:32.346Z,13.50
2022-09-28T03:51:03.766Z,13.50
2022-09-28T03:53:31.131Z,13.50
2022-09-28T03:56:04.014Z,13.40
2022-09-28T03:58:30.766Z,13.40
2022-09-28T04:01:06.052Z,13.40
2022-09-28T04:03:33.427Z,13.40
2022-09-28T04:06:00.830Z,13.40
2022-09-28T04:08:27.904Z,13.40
2022-09-28T04:10:58.891Z,13.60
2022-09-28T04:13:27.224Z,13.60
2022-09-28T04:15:56.677Z,13.50
2022-09-28T04:18:23.957Z,13.50
2022-09-28T04:21:04.623Z,13.50
2022-09-28T04:23:31.437Z,13.50
2022-09-28T04:25:58.469Z,13.50
2022-09-28T04:28:44.089Z,13.50
2022-09-28T04:31:16.957Z,13.60
2022-09-28T04:33:43.917Z,13.50
2022-09-28T04:36:11.146Z,13.50
2022-09-28T04:38:52.215Z,13.50
2022-09-28T04:41:22.298Z,13.50
2022-09-28T04:43:49.777Z,13.50
2022-09-28T04:46:17.284Z,13.50
2022-09-28T04:48:44.296Z,13.50
2022-09-28T04:51:11.096Z,13.60
2022-09-28T04:53:37.869Z,13.60
2022-09-28T04:56:11.263Z,13.70
2022-09-28T04:58:38.574Z,13.80
2022-09-28T05:01:08.359Z,13.80
2022-09-28T05:03:35.752Z,13.80
2022-09-28T05:06:02.738Z,13.80
2022-09-28T05:08:30.073Z,13.90
2022-09-28T05:11:05.956Z,14.00
2022-09-28T05:13:35.815Z,14.00
2022-09-28T05:16:05.395Z,14.10
2022-09-28T05:18:32.797Z,14.20
2022-09-28T05:20:59.832Z,14.30
2022-09-28T05:23:26.764Z,14.20
2022-09-28T05:25:53.628Z,14.40
2022-09-28T05:28:27.160Z,14.40
2022-09-28T05:30:58.081Z,14.50
2022-09-28T05:33:24.874Z,14.40
2022-09-28T05:35:55.135Z,14.40
2022-09-28T05:38:24.144Z,14.50
2022-09-28T05:40:50.976Z,14.50
2022-09-28T05:43:18.082Z,14.30
2022-09-28T05:45:45.224Z,14.30
2022-09-28T05:48:12.079Z,14.30
2022-09-28T05:50:38.859Z,14.10
2022-09-28T05:53:10.047Z,14.00
2022-09-28T05:55:37.603Z,14.10
2022-09-28T05:58:06.571Z,14.10
2022-09-28T06:00:35.127Z,14.20
2022-09-28T06:03:12.992Z,14.20
2022-09-28T06:05:40.406Z,14.20
2022-09-28T06:08:10.349Z,14.20
2022-09-28T06:10:37.613Z,14.30
2022-09-28T06:13:05.147Z,14.60
2022-09-28T06:15:33.898Z,14.70
2022-09-28T06:18:01.729Z,14.60
2022-09-28T06:20:31.357Z,14.40
2022-09-28T06:22:58.135Z,14.30
2022-09-28T06:25:27.579Z,14.40
2022-09-28T06:27:59.456Z,14.40
2022-09-28T06:30:27.903Z,14.40
2022-09-28T06:32:56.972Z,14.50
2022-09-28T06:35:26.094Z,14.60
2022-09-28T06:37:53.911Z,14.50
2022-09-28T06:40:22.182Z,14.60
2022-09-28T06:43:17.480Z,14.50
2022-09-28T06:45:44.306Z,14.40
2022-09-28T06:48:11.584Z,14.30
2022-09-28T06:50:40.905Z,14.30
2022-09-28T06:53:10.656Z,14.30
2022-09-28T06:55:42.435Z,14.30
2022-09-28T06:58:14.398Z,14.40
2022-09-28T07:00:41.981Z,14.60
2022-09-28T07:03:13.822Z,14.50
2022-09-28T07:05:46.854Z,14.60
2022-09-28T07:08:15.133Z,14.70
2022-09-28T07:10:49.588Z,14.90
2022-09-28T07:13:44.331Z,15.00
2022-09-28T07:16:04.428Z,15.10
2022-09-28T07:18:31.245Z,15.20
2022-09-28T07:20:58.850Z,15.30
2022-09-28T07:23:28.540Z,15.30
2022-09-28T07:25:55.352Z,15.20
2022-09-28T07:28:22.548Z,15.20
2022-09-28T07:30:49.485Z,15.10
2022-09-28T07:33:17.642Z,15.00
2022-09-28T07:35:55.540Z,15.00
2022-09-28T07:38:22.793Z,15.10
2022-09-28T07:41:08.128Z,15.10
2022-09-28T07:43:35.416Z,14.90
2022-09-28T07:46:02.361Z,14.90
2022-09-28T07:48:37.788Z,14.90
2022-09-28T07:51:04.843Z,15.10
2022-09-28T07:53:31.699Z,15.10
2022-09-28T07:56:07.372Z,15.00
2022-09-28T07:58:39.278Z,15.00
2022-09-28T08:01:11.337Z,15.00
2022-09-28T08:03:38.825Z,15.10
2022-09-28T08:06:07.587Z,15.20
2022-09-28T08:08:35.797Z,15.40
2022-09-28T08:11:03.429Z,15.60
2022-09-28T08:13:31.133Z,15.70
2022-09-28T08:16:01.592Z,15.70
2022-09-28T08:18:28.684Z,15.80
2022-09-28T08:21:13.967Z,16.00
2022-09-28T08:23:40.934Z,16.20
2022-09-28T08:26:12.106Z,16.20
2022-09-28T08:28:42.866Z,16.20
2022-09-28T08:31:09.760Z,16.30
2022-09-28T08:33:36.658Z,16.40
2022-09-28T08:36:04.535Z,16.40
2022-09-28T08:38:32.682Z,16.50
2022-09-28T08:41:05.170Z,16.50
2022-09-28T08:43:55.790Z,16.60
2022-09-28T08:46:27.121Z,16.50
2022-09-28T08:49:26.299Z,16.60
2022-09-28T08:52:07.764Z,16.60
2022-09-28T08:54:54.623Z,16.60
2022-09-28T08:57:32.165Z,16.70
2022-09-28T09:00:01.943Z,17.30
2022-09-28T09:02:33.966Z,17.90
2022-09-28T09:05:06.182Z,18.20
2022-09-28T09:07:41.571Z,18.60
2022-09-28T09:10:30.180Z,18.50
2022-09-28T09:13:05.614Z,18.40
2022-09-28T09:15:50.537Z,18.30
2022-09-28T09:18:49.254Z,18.20
2022-09-28T09:21:34.856Z,18.10
2022-09-28T09:24:14.073Z,18.00
2022-09-28T09:26:41.886Z,17.70
2022-09-28T09:29:30.355Z,17.40
2022-09-28T09:32:04.331Z,17.50
2022-09-28T09:34:52.898Z,17.60
2022-09-28T09:37:34.456Z,17.90
2022-09-28T09:40:18.118Z,18.10
2022-09-28T09:43:20.535Z,18.00
2022-09-28T09:46:17.102Z,18.10
2022-09-28T09:49:09.892Z,18.40
2022-09-28T09:52:01.169Z,18.40
2022-09-28T09:54:45.617Z,18.10
2022-09-28T09:57:28.083Z,18.10
2022-09-28T09:59:57.920Z,18.10
2022-09-28T10:02:30.751Z,18.10
2022-09-28T10:05:07.737Z,17.80
2022-09-28T10:07:52.834Z,17.60
2022-09-28T10:10:28.284Z,17.60
2022-09-28T10:12:55.672Z,17.50
2022-09-28T10:15:27.797Z,17.50
2022-09-28T10:17:56.957Z,17.60
2022-09-28T10:20:25.612Z,17.50
2022-09-28T10:22:54.115Z,17.20
2022-09-28T10:25:21.313Z,17.10
2022-09-28T10:27:52.358Z,17.10
2022-09-28T10:30:25.504Z,17.20
2022-09-28T10:32:58.945Z,17.20
2022-09-28T10:35:31.428Z,17.30
2022-09-28T10:37:58.413Z,17.20
2022-09-28T10:40:39.685Z,17.30
2022-09-28T10:43:21.921Z,17.40
2022-09-28T10:45:49.676Z,17.40
2022-09-28T10:48:23.045Z,17.30
2022-09-28T10:51:06.402Z,17.30
2022-09-28T10:53:37.141Z,17.30
2022-09-28T10:56:22.496Z,17.30
2022-09-28T10:58:49.294Z,17.40
2022-09-28T11:01:22.608Z,17.60
2022-09-28T11:04:10.883Z,17.50
2022-09-28T11:06:40.024Z,17.10
2022-09-28T11:09:29.756Z,16.90
2022-09-28T11:11:59.510Z,16.80
2022-09-28T11:14:41.083Z,17.00
2022-09-28T11:17:43.914Z,17.00
2022-09-28T11:20:35.495Z,17.10
2022-09-28T11:23:26.795Z,17.30
2022-09-28T11:25:59.982Z,17.10
2022-09-28T11:28:32.717Z,17.10
2022-09-28T11:31:01.444Z,16.90
2022-09-28T11:33:41.708Z,17.00
2022-09-28T11:36:41.888Z,16.80
2022-09-28T11:39:38.588Z,16.70
2022-09-28T11:42:16.214Z,16.80
2022-09-28T11:44:46.433Z,16.60
2022-09-28T11:47:21.805Z,16.60
2022-09-28T11:49:52.353Z,16.50
2022-09-28T11:52:29.121Z,16.50
2022-09-28T11:55:01.276Z,16.60
2022-09-28T11:57:35.542Z,16.60
2022-09-28T12:00:10.680Z,16.60
2022-09-28T12:02:46.213Z,16.60
2022-09-28T12:05:33.336Z,16.60
2022-09-28T12:08:16.885Z,16.70
2022-09-28T12:10:58.371Z,16.80
2022-09-28T12:13:33.026Z,17.10
2022-09-28T12:21:50.638Z,17.40
2022-09-28T12:24:43.964Z,17.50
2022-09-28T12:27:10.689Z,17.30
2022-09-28T12:29:48.127Z,17.50
2022-09-28T12:32:39.328Z,17.40
2022-09-28T12:35:36.542Z,17.10
2022-09-28T12:38:09.271Z,16.90
2022-09-28T12:40:52.828Z,16.80
2022-09-28T12:43:54.624Z,16.60
2022-09-28T12:46:48.991Z,16.40
2022-09-28T12:50:33.389Z,16.30
2022-09-28T12:52:49.889Z,16.20
2022-09-28T12:55:25.062Z,16.20
2022-09-28T12:58:45.888Z,16.10
2022-09-28T13:01:24.443Z,16.30
2022-09-28T13:04:13.340Z,16.30
2022-09-28T13:07:05.880Z,16.20
2022-09-28T13:09:58.770Z,16.20
2022-09-28T13:12:30.486Z,16.40
2022-09-28T13:15:17.794Z,16.40
2022-09-28T13:18:13.768Z,16.20
2022-09-28T13:21:03.817Z,16.30
2022-09-28T13:23:39.388Z,16.40
2022-09-28T13:26:15.270Z,16.30
2022-09-28T13:28:45.402Z,16.30
2022-09-28T13:31:15.535Z,16.30
2022-09-28T13:33:44.969Z,16.30
2022-09-28T13:36:30.156Z,16.30
2022-09-28T13:38:59.490Z,16.20
2022-09-28T13:41:31.776Z,16.20
2022-09-28T13:44:23.895Z,16.20
2022-09-28T13:46:59.955Z,16.30
2022-09-28T13:49:51.236Z,16.40
2022-09-28T13:52:26.839Z,16.40
2022-09-28T13:54:56.581Z,16.70
2022-09-28T13:57:37.277Z,16.80
2022-09-28T14:00:22.094Z,16.90
2022-09-28T14:02:58.877Z,16.80
2022-09-28T14:05:53.246Z,16.80
2022-09-28T14:08:36.546Z,16.90
2022-09-28T14:11:27.567Z,16.80
2022-09-28T14:14:00.435Z,16.80
2022-09-28T14:16:32.390Z,16.70
2022-09-28T14:19:08.507Z,16.60
2022-09-28T14:22:00.724Z,16.60
2022-09-28T14:24:34.448Z,16.50
2022-09-28T14:27:10.070Z,16.60
2022-09-28T14:29:39.008Z,16.40
2022-09-28T14:32:33.093Z,16.40
2022-09-28T14:35:06.875Z,16.30
2022-09-28T14:37:59.954Z,16.30
2022-09-28T14:41:12.572Z,16.30
2022-09-28T14:43:45.407Z,16.30
2022-09-28T14:46:15.447Z,16.20
2022-09-28T14:48:55.230Z,16.20
2022-09-28T14:51:24.993Z,16.10
2022-09-28T14:53:52.431Z,16.00
2022-09-28T14:56:20.776Z,15.80
2022-09-28T14:58:55.782Z,15.80
2022-09-28T15:01:24.813Z,15.80
2022-09-28T15:03:54.742Z,15.90
2022-09-28T15:06:26.925Z,15.80
2022-09-28T15:08:53.673Z,15.90
2022-09-28T15:11:23.562Z,15.90
2022-09-28T15:14:04.453Z,15.70
2022-09-28T15:16:32.155Z,15.70
2022-09-28T15:19:30.153Z,15.70
2022-09-28T15:21:56.942Z,15.80
2022-09-28T15:24:31.921Z,15.70
2022-09-28T15:27:00.453Z,15.70
2022-09-28T15:29:31.180Z,15.60
2022-09-28T15:31:59.023Z,15.70
2022-09-28T15:34:54.596Z,15.70
2022-09-28T15:37:27.878Z,15.70
2022-09-28T15:39:57.436Z,15.80
2022-09-28T15:42:24.757Z,15.60
2022-09-28T15:45:15.060Z,15.70
2022-09-28T15:47:43.607Z,15.70
2022-09-28T15:50:22.103Z,15.60
2022-09-28T15:53:04.455Z,15.60
2022-09-28T15:55:37.319Z,15.60
2022-09-28T15:58:17.169Z,15.60
2022-09-28T16:01:12.013Z,15.60
2022-09-28T16:03:38.825Z,15.50
2022-09-28T16:06:08.226Z,15.60
2022-09-28T16:08:42.812Z,15.60
2022-09-28T16:11:27.409Z,15.70
2022-09-28T16:14:02.616Z,15.60
2022-09-28T16:16:50.280Z,15.50
2022-09-28T16:19:36.178Z,15.50
2022-09-28T16:22:07.410Z,15.60
2022-09-28T16:24:36.879Z,15.60
2022-09-28T16:27:04.910Z,15.60
2022-09-28T16:29:45.015Z,15.50
2022-09-28T16:32:26.975Z,15.40
2022-09-28T16:35:17.441Z,15.50
2022-09-28T16:37:44.521Z,15.50
2022-09-28T16:40:14.230Z,15.50
2022-09-28T16:42:48.153Z,15.50
2022-09-28T16:45:22.331Z,15.50
2022-09-28T16:47:52.922Z,15.50
2022-09-28T16:50:21.588Z,15.60
2022-09-28T16:53:34.125Z,15.50
2022-09-28T16:56:02.075Z,15.50
2022-09-28T16:58:29.003Z,15.50
2022-09-28T17:00:56.461Z,15.50
2022-09-28T17:03:23.754Z,15.50
2022-09-28T17:05:51.517Z,15.60
2022-09-28T17:08:22.289Z,15.60
2022-09-28T17:11:15.810Z,15.50
2022-09-28T17:13:42.413Z,15.60
2022-09-28T17:16:28.206Z,15.50
2022-09-28T17:19:20.770Z,15.50
2022-09-28T17:21:48.187Z,15.40
2022-09-28T17:24:15.027Z,15.30
2022-09-28T17:26:43.847Z,15.30
2022-09-28T17:29:14.543Z,15.10
2022-09-28T17:31:45.354Z,15.00
2022-09-28T17:34:16.102Z,15.00
2022-09-28T17:36:44.201Z,14.90
2022-09-28T17:39:13.595Z,14.90
2022-09-28T17:41:40.947Z,14.70
2022-09-28T17:44:08.203Z,14.70
2022-09-28T17:46:37.790Z,14.60
2022-09-28T17:49:07.883Z,14.50
2022-09-28T17:51:39.790Z,14.40
2022-09-28T17:54:08.165Z,14.40
2022-09-28T17:56:36.283Z,14.40
2022-09-28T17:59:06.288Z,14.40
2022-09-28T18:01:34.687Z,14.40
2022-09-28T18:04:04.203Z,14.50
2022-09-28T18:06:34.052Z,14.40
2022-09-28T18:09:03.152Z,14.40
2022-09-28T18:11:31.110Z,14.40
2022-09-28T18:13:57.926Z,14.40
2022-09-28T18:16:25.795Z,14.30
2022-09-28T18:18:52.595Z,14.20
2022-09-28T18:21:19.982Z,14.20
2022-09-28T18:23:46.783Z,14.20
2022-09-28T18:26:15.238Z,14.10
2022-09-28T18:28:42.300Z,14.10
2022-09-28T18:31:10.995Z,14.00
2022-09-28T18:33:38.515Z,14.00
2022-09-28T18:36:06.445Z,14.00
2022-09-28T18:38:36.356Z,13.90
2022-09-28T18:41:12.034Z,13.80
2022-09-28T18:43:38.763Z,13.70
2022-09-28T18:46:09.991Z,13.60
2022-09-28T18:48:37.877Z,13.50
2022-09-28T18:51:09.638Z,13.40
2022-09-28T18:53:36.856Z,13.50
2022-09-28T18:56:08.467Z,13.40
2022-09-28T18:58:37.216Z,13.20
2022-09-28T19:01:29.962Z,13.10
2022-09-28T19:04:01.734Z,13.00
2022-09-28T19:06:29.148Z,13.00
2022-09-28T19:08:56.661Z,13.00
2022-09-28T19:11:24.420Z,13.00
2022-09-28T19:13:53.862Z,12.90
2022-09-28T19:16:24.215Z,12.80
2022-09-28T19:18:53.422Z,12.70
2022-09-28T19:21:20.802Z,12.70
2022-09-28T19:23:49.760Z,12.70
2022-09-28T19:26:20.980Z,12.70
2022-09-28T19:28:48.369Z,12.60
2022-09-28T19:31:15.619Z,12.50
2022-09-28T19:33:43.162Z,12.60
2022-09-28T19:36:12.660Z,12.60
2022-09-28T19:38:40.397Z,12.50
2022-09-28T19:41:39.334Z,12.50
2022-09-28T19:44:29.704Z,12.50
2022-09-28T19:46:58.064Z,12.40
2022-09-28T19:49:26.643Z,12.30
2022-09-28T19:52:15.141Z,12.30
2022-09-28T19:54:57.311Z,12.30
2022-09-28T19:57:25.951Z,12.30
2022-09-28T19:59:55.802Z,12.20
2022-09-28T20:02:24.827Z,12.30
2022-09-28T20:04:51.672Z,12.20
2022-09-28T20:07:18.391Z,12.20
2022-09-28T20:09:45.197Z,12.10
2022-09-28T20:12:12.002Z,12.10
2022-09-28T20:14:40.379Z,12.10
2022-09-28T20:17:07.713Z,12.10
2022-09-28T20:19:35.064Z,12.10
2022-09-28T20:22:02.831Z,12.00
2022-09-28T20:24:31.379Z,12.00
2022-09-28T20:26:58.391Z,12.00
2022-09-28T20:29:25.224Z,11.90
2022-09-28T20:31:52.249Z,11.90
2022-09-28T20:34:19.245Z,11.90
2022-09-28T20:36:46.057Z,11.80
2022-09-28T20:39:13.129Z,11.80
2022-09-28T20:41:40.362Z,11.90
2022-09-28T20:44:07.447Z,11.90
2022-09-28T20:46:35.329Z,11.80
2022-09-28T20:49:02.542Z,11.80
2022-09-28T20:51:29.318Z,11.70
2022-09-28T20:53:57.780Z,11.80
2022-09-28T20:56:34.531Z,11.70
2022-09-28T20:59:01.372Z,11.60
2022-09-28T21:01:30.523Z,11.60
2022-09-28T21:03:59.582Z,11.60
2022-09-28T21:06:28.595Z,11.60
2022-09-28T21:08:55.438Z,11.60
2022-09-28T21:11:24.478Z,11.50
2022-09-28T21:13:57.076Z,11.50
2022-09-28T21:16:24.941Z,11.50
2022-09-28T21:18:51.901Z,11.50
2022-09-28T21:21:20.285Z,11.50
2022-09-28T21:23:47.513Z,11.50
2022-09-28T21:26:18.895Z,11.40
2022-09-28T21:28:46.653Z,11.40
2022-09-28T21:31:14.587Z,11.40
2022-09-28T21:33:41.355Z,11.40
2022-09-28T21:36:08.560Z,11.50
2022-09-28T21:38:35.368Z,11.50
2022-09-28T21:41:02.551Z,11.40
2022-09-28T21:43:31.546Z,11.50
2022-09-28T21:45:58.531Z,11.50
2022-09-28T21:48:27.388Z,11.50
2022-09-28T21:51:02.526Z,11.50
2022-09-28T21:53:32.313Z,11.40
2022-09-28T21:56:00.874Z,11.30
2022-09-28T21:58:31.192Z,11.30
2022-09-28T22:01:07.071Z,11.30
2022-09-28T22:03:35.947Z,11.30
2022-09-28T22:06:04.139Z,11.30
2022-09-28T22:08:31.274Z,11.30
2022-09-28T22:11:01.908Z,11.30
2022-09-28T22:13:31.774Z,11.20
2022-09-28T22:15:59.155Z,11.20
2022-09-28T22:18:30.596Z,11.30
2022-09-28T22:21:01.140Z,11.30
2022-09-28T22:23:29.131Z,11.30
2022-09-28T22:26:13.933Z,11.20
2022-09-28T22:28:46.447Z,11.20
2022-09-28T22:31:14.865Z,11.20
2022-09-28T22:33:41.726Z,11.30
2022-09-28T22:36:08.730Z,11.30
2022-09-28T22:38:35.643Z,11.30
2022-09-28T22:41:05.114Z,11.20
2022-09-28T22:43:32.301Z,11.20
2022-09-28T22:46:11.149Z,11.20
2022-09-28T22:48:38.505Z,11.20
2022-09-28T22:51:06.667Z,11.10
2022-09-28T22:53:34.468Z,11.10
2022-09-28T22:56:05.285Z,11.00
2022-09-28T22:58:33.261Z,11.00
2022-09-28T23:01:27.591Z,11.00
2022-09-28T23:03:55.734Z,10.90
2022-09-28T23:06:25.914Z,10.90
2022-09-28T23:08:53.373Z,10.90
2022-09-28T23:11:20.299Z,10.90
2022-09-28T23:13:54.123Z,10.90
2022-09-28T23:16:23.363Z,10.90
2022-09-28T23:18:50.301Z,10.90
2022-09-28T23:21:19.774Z,10.90
2022-09-28T23:23:52.278Z,11.00
2022-09-28T23:26:22.036Z,11.00
2022-09-28T23:28:49.107Z,10.90
2022-09-28T23:31:24.488Z,11.00
2022-09-28T23:33:51.457Z,10.90
2022-09-28T23:36:18.748Z,10.80
2022-09-28T23:38:45.548Z,10.90
2022-09-28T23:41:12.414Z,10.90
2022-09-28T23:43:39.192Z,10.90
2022-09-28T23:46:06.681Z,10.90
2022-09-28T23:48:33.876Z,10.90
2022-09-28T23:51:01.066Z,10.90
2022-09-28T23:53:28.468Z,11.00
2022-09-28T23:55:55.667Z,10.90
2022-09-28T23:58:22.676Z,11.00
